createdAt,value
2022-11-10T00:00:37.117Z,1010.08
2022-11-10T00:01:37.086Z,1010.07
2022-11-10T00:02:37.067Z,1010.07
2022-11-10T00:03:37.055Z,1010.07
2022-11-10T00:04:37.080Z,1010.06
2022-11-10T00:05:37.029Z,1010.09
2022-11-10T00:06:37.135Z,1010.04
2022-11-10T00:07:37.009Z,1010.04
2022-11-10T00:08:36.998Z,1010.07
2022-11-10T00:09:37.008Z,1010.08
2022-11-10T00:10:36.978Z,1010.10
2022-11-10T00:11:36.977Z,1010.10
2022-11-10T00:12:36.963Z,1010.09
2022-11-10T00:13:36.941Z,1010.10
2022-11-10T00:14:36.943Z,1010.05
2022-11-10T00:15:36.922Z,1010.12
2022-11-10T00:16:36.937Z,1010.08
2022-11-10T00:17:36.910Z,1010.11
2022-11-10T00:18:36.886Z,1010.11
2022-11-10T00:19:36.884Z,1010.14
2022-11-10T00:20:36.867Z,1010.18
2022-11-10T00:21:36.867Z,1010.22
2022-11-10T00:22:36.841Z,1010.19
2022-11-10T00:23:36.835Z,1010.19
2022-11-10T00:24:36.824Z,1010.17
2022-11-10T00:25:36.815Z,1010.19
2022-11-10T00:26:36.820Z,1010.21
2022-11-10T00:27:36.791Z,1010.23
2022-11-10T00:28:36.779Z,1010.23
2022-11-10T00:29:36.773Z,1010.27
2022-11-10T00:30:36.759Z,1010.25
2022-11-10T00:31:36.756Z,1010.28
2022-11-10T00:32:36.752Z,1010.26
2022-11-10T00:33:36.721Z,1010.28
2022-11-10T00:34:36.720Z,1010.26
2022-11-10T00:35:36.702Z,1010.30
2022-11-10T00:36:36.700Z,1010.26
2022-11-10T00:37:36.675Z,1010.31
2022-11-10T00:38:36.674Z,1010.31
2022-11-10T00:39:36.657Z,1010.33
2022-11-10T00:40:36.655Z,1010.32
2022-11-10T00:41:36.648Z,1010.33
2022-11-10T00:42:36.623Z,1010.31
2022-11-10T00:43:36.608Z,1010.32
2022-11-10T00:44:36.606Z,1010.34
2022-11-10T00:45:36.589Z,1010.33
2022-11-10T00:46:36.594Z,1010.35
2022-11-10T00:47:36.565Z,1010.37
2022-11-10T00:48:36.574Z,1010.33
2022-11-10T00:49:36.546Z,1010.34
2022-11-10T00:50:36.538Z,1010.37
2022-11-10T00:51:36.528Z,1010.34
2022-11-10T00:52:36.510Z,1010.34
2022-11-10T00:53:36.502Z,1010.36
2022-11-10T00:54:36.568Z,1010.35
2022-11-10T00:55:36.483Z,1010.33
2022-11-10T00:56:36.478Z,1010.37
2022-11-10T00:57:36.456Z,1010.36
2022-11-10T00:58:36.492Z,1010.40
2022-11-10T00:59:36.437Z,1010.42
2022-11-10T01:00:36.426Z,1010.43
2022-11-10T01:01:36.528Z,1010.44
2022-11-10T01:02:36.405Z,1010.45
2022-11-10T01:03:36.396Z,1010.48
2022-11-10T01:04:36.403Z,1010.51
2022-11-10T01:05:36.368Z,1010.48
2022-11-10T01:06:36.428Z,1010.55
2022-11-10T01:07:36.343Z,1010.53
2022-11-10T01:08:36.339Z,1010.51
2022-11-10T01:09:36.330Z,1010.50
2022-11-10T01:10:36.315Z,1010.51
2022-11-10T01:11:36.318Z,1010.50
2022-11-10T01:12:36.290Z,1010.52
2022-11-10T01:13:36.278Z,1010.52
2022-11-10T01:14:36.271Z,1010.56
2022-11-10T01:15:36.255Z,1010.52
2022-11-10T01:16:36.257Z,1010.54
2022-11-10T01:17:36.235Z,1010.52
2022-11-10T01:18:36.226Z,1010.53
2022-11-10T01:19:36.211Z,1010.55
2022-11-10T01:20:36.222Z,1010.56
2022-11-10T01:21:36.203Z,1010.56
2022-11-10T01:22:36.181Z,1010.56
2022-11-10T01:23:36.170Z,1010.64
2022-11-10T01:24:36.159Z,1010.62
2022-11-10T01:25:36.146Z,1010.60
2022-11-10T01:26:36.152Z,1010.64
2022-11-10T01:27:36.122Z,1010.58
2022-11-10T01:28:36.115Z,1010.62
2022-11-10T01:29:36.101Z,1010.64
2022-11-10T01:30:36.091Z,1010.61
2022-11-10T01:31:36.089Z,1010.65
2022-11-10T01:33:39.625Z,1010.66
2022-11-10T01:34:39.627Z,1010.69
2022-11-10T01:35:39.617Z,1010.69
2022-11-10T01:36:39.612Z,1010.74
2022-11-10T01:37:39.577Z,1010.71
2022-11-10T01:38:39.600Z,1010.76
2022-11-10T01:39:39.577Z,1010.78
2022-11-10T01:40:39.596Z,1010.76
2022-11-10T01:41:39.570Z,1010.82
2022-11-10T01:42:39.524Z,1010.83
2022-11-10T01:43:39.515Z,1010.81
2022-11-10T01:44:39.514Z,1010.84
2022-11-10T01:45:39.489Z,1010.83
2022-11-10T01:46:39.488Z,1010.88
2022-11-10T01:47:39.467Z,1010.82
2022-11-10T01:48:39.457Z,1010.86
2022-11-10T01:49:39.445Z,1010.86
2022-11-10T01:50:39.443Z,1010.94
2022-11-10T01:51:39.463Z,1010.92
2022-11-10T01:52:39.413Z,1010.93
2022-11-10T01:53:39.404Z,1010.96
2022-11-10T01:54:39.393Z,1010.96
2022-11-10T01:55:39.380Z,1010.95
2022-11-10T01:56:39.382Z,1010.98
2022-11-10T01:57:39.360Z,1010.95
2022-11-10T01:58:39.351Z,1010.99
2022-11-10T01:59:39.336Z,1011.03
2022-11-10T02:00:39.349Z,1011.01
2022-11-10T02:01:39.325Z,1011.09
2022-11-10T02:02:39.304Z,1011.08
2022-11-10T02:03:39.293Z,1011.08
2022-11-10T02:04:39.283Z,1011.09
2022-11-10T02:05:39.270Z,1011.10
2022-11-10T02:06:39.299Z,1011.09
2022-11-10T02:07:39.268Z,1011.12
2022-11-10T02:08:39.239Z,1011.09
2022-11-10T02:09:39.230Z,1011.08
2022-11-10T02:10:39.220Z,1011.09
2022-11-10T02:11:39.214Z,1011.10
2022-11-10T02:12:39.195Z,1011.12
2022-11-10T02:13:39.182Z,1011.11
2022-11-10T02:14:39.174Z,1011.13
2022-11-10T02:15:39.166Z,1011.10
2022-11-10T02:16:39.165Z,1011.12
2022-11-10T02:17:39.164Z,1011.10
2022-11-10T02:18:39.130Z,1011.11
2022-11-10T02:19:39.117Z,1011.15
2022-11-10T02:20:39.106Z,1011.13
2022-11-10T02:21:39.105Z,1011.15
2022-11-10T02:22:39.090Z,1011.14
2022-11-10T02:23:39.092Z,1011.14
2022-11-10T02:24:39.063Z,1011.19
2022-11-10T02:25:39.052Z,1011.21
2022-11-10T02:26:39.050Z,1011.22
2022-11-10T02:27:39.030Z,1011.22
2022-11-10T02:28:39.021Z,1011.21
2022-11-10T02:29:39.007Z,1011.29
2022-11-10T02:30:39.000Z,1011.27
2022-11-10T02:31:38.996Z,1011.28
2022-11-10T02:32:38.975Z,1011.27
2022-11-10T02:33:38.966Z,1011.29
2022-11-10T02:34:38.955Z,1011.33
2022-11-10T02:35:38.941Z,1011.32
2022-11-10T02:36:38.942Z,1011.34
2022-11-10T02:37:38.922Z,1011.32
2022-11-10T02:38:38.911Z,1011.35
2022-11-10T02:39:38.916Z,1011.33
2022-11-10T02:40:38.899Z,1011.31
2022-11-10T02:41:38.884Z,1011.34
2022-11-10T02:42:38.869Z,1011.33
2022-11-10T02:43:38.854Z,1011.39
2022-11-10T02:44:38.846Z,1011.38
2022-11-10T02:45:38.880Z,1011.35
2022-11-10T02:46:38.834Z,1011.36
2022-11-10T02:47:38.869Z,1011.43
2022-11-10T02:48:38.802Z,1011.45
2022-11-10T02:49:38.814Z,1011.43
2022-11-10T02:50:38.783Z,1011.39
2022-11-10T02:51:38.829Z,1011.42
2022-11-10T02:52:38.771Z,1011.39
2022-11-10T02:53:38.748Z,1011.40
2022-11-10T02:54:38.754Z,1011.39
2022-11-10T02:55:38.743Z,1011.39
2022-11-10T02:56:38.755Z,1011.46
2022-11-10T02:57:38.790Z,1011.47
2022-11-10T02:58:38.695Z,1011.44
2022-11-10T02:59:38.678Z,1011.47
2022-11-10T03:00:38.672Z,1011.50
2022-11-10T03:01:38.685Z,1011.54
2022-11-10T03:02:38.660Z,1011.54
2022-11-10T03:03:38.635Z,1011.50
2022-11-10T03:04:38.630Z,1011.56
2022-11-10T03:05:38.612Z,1011.54
2022-11-10T03:06:38.694Z,1011.58
2022-11-10T03:07:38.602Z,1011.60
2022-11-10T03:08:38.582Z,1011.60
2022-11-10T03:09:38.569Z,1011.61
2022-11-10T03:10:38.564Z,1011.59
2022-11-10T03:11:38.566Z,1011.55
2022-11-10T03:12:38.567Z,1011.65
2022-11-10T03:13:58.847Z,1011.68
2022-11-10T03:14:39.526Z,1011.67
2022-11-10T03:15:38.520Z,1011.72
2022-11-10T03:16:38.495Z,1011.74
2022-11-10T03:17:38.504Z,1011.74
2022-11-10T03:18:38.493Z,1011.74
2022-11-10T03:19:38.507Z,1011.77
2022-11-10T03:20:38.451Z,1011.85
2022-11-10T03:21:38.439Z,1011.88
2022-11-10T03:22:38.450Z,1011.87
2022-11-10T03:23:38.484Z,1011.90
2022-11-10T03:24:38.408Z,1011.89
2022-11-10T03:25:38.394Z,1011.88
2022-11-10T03:26:38.387Z,1011.95
2022-11-10T03:27:38.400Z,1011.95
2022-11-10T03:28:38.362Z,1011.90
2022-11-10T03:29:38.353Z,1011.94
2022-11-10T03:30:38.342Z,1011.99
2022-11-10T03:31:38.343Z,1011.99
2022-11-10T03:32:38.336Z,1012.04
2022-11-10T03:33:38.308Z,1012.06
2022-11-10T03:34:38.302Z,1012.08
2022-11-10T03:35:38.285Z,1012.10
2022-11-10T03:36:38.276Z,1012.21
2022-11-10T03:37:38.279Z,1012.18
2022-11-10T03:38:38.255Z,1012.19
2022-11-10T03:39:38.245Z,1012.20
2022-11-10T03:41:04.200Z,1012.23
2022-11-10T03:41:39.221Z,1012.20
2022-11-10T03:42:38.219Z,1012.22
2022-11-10T03:43:38.218Z,1012.20
2022-11-10T03:44:38.190Z,1012.21
2022-11-10T03:45:38.180Z,1012.23
2022-11-10T03:46:40.566Z,1012.23
2022-11-10T03:47:39.163Z,1012.22
2022-11-10T03:48:38.146Z,1012.18
2022-11-10T03:49:38.134Z,1012.20
2022-11-10T03:50:38.126Z,1012.24
2022-11-10T03:51:38.112Z,1012.24
2022-11-10T03:52:38.115Z,1012.25
2022-11-10T03:53:38.093Z,1012.26
2022-11-10T03:54:38.080Z,1012.28
2022-11-10T03:55:38.070Z,1012.33
2022-11-10T03:56:38.061Z,1012.37
2022-11-10T03:57:38.056Z,1012.36
2022-11-10T03:58:38.037Z,1012.37
2022-11-10T03:59:38.046Z,1012.34
2022-11-10T04:00:38.017Z,1012.36
2022-11-10T04:01:38.053Z,1012.41
2022-11-10T04:02:38.067Z,1012.37
2022-11-10T04:03:37.982Z,1012.35
2022-11-10T04:04:38.006Z,1012.34
2022-11-10T04:05:37.963Z,1012.36
2022-11-10T04:06:37.988Z,1012.43
2022-11-10T04:07:37.952Z,1012.41
2022-11-10T04:08:37.925Z,1012.42
2022-11-10T04:09:37.916Z,1012.47
2022-11-10T04:10:37.905Z,1012.45
2022-11-10T04:11:37.898Z,1012.48
2022-11-10T04:12:37.912Z,1012.47
2022-11-10T04:13:37.873Z,1012.48
2022-11-10T04:14:37.876Z,1012.49
2022-11-10T04:15:37.876Z,1012.44
2022-11-10T04:16:37.839Z,1012.50
2022-11-10T04:17:37.840Z,1012.54
2022-11-10T04:18:37.820Z,1012.57
2022-11-10T04:19:37.810Z,1012.60
2022-11-10T04:20:37.801Z,1012.59
2022-11-10T04:21:37.790Z,1012.60
2022-11-10T04:22:37.784Z,1012.62
2022-11-10T04:23:37.765Z,1012.65
2022-11-10T04:24:37.756Z,1012.66
2022-11-10T04:25:37.743Z,1012.67
2022-11-10T04:26:37.734Z,1012.71
2022-11-10T04:27:37.732Z,1012.74
2022-11-10T04:28:37.711Z,1012.72
2022-11-10T04:29:37.702Z,1012.76
2022-11-10T04:30:37.692Z,1012.73
2022-11-10T04:31:37.711Z,1012.80
2022-11-10T04:32:37.671Z,1012.79
2022-11-10T04:33:37.658Z,1012.84
2022-11-10T04:34:37.645Z,1012.88
2022-11-10T04:35:37.635Z,1012.90
2022-11-10T04:36:37.635Z,1012.89
2022-11-10T04:37:37.616Z,1012.90
2022-11-10T04:38:37.608Z,1012.87
2022-11-10T04:39:37.595Z,1012.92
2022-11-10T04:40:37.580Z,1012.98
2022-11-10T04:41:37.584Z,1012.93
2022-11-10T04:42:37.558Z,1012.95
2022-11-10T04:43:37.551Z,1012.91
2022-11-10T04:44:37.538Z,1012.98
2022-11-10T04:45:37.530Z,1012.93
2022-11-10T04:46:37.531Z,1012.92
2022-11-10T04:47:37.523Z,1012.92
2022-11-10T04:48:37.494Z,1012.96
2022-11-10T04:49:37.485Z,1012.92
2022-11-10T04:50:37.473Z,1012.93
2022-11-10T04:51:37.560Z,1012.92
2022-11-10T04:52:37.451Z,1012.94
2022-11-10T04:53:37.442Z,1012.94
2022-11-10T04:54:37.431Z,1012.95
2022-11-10T04:55:37.421Z,1012.94
2022-11-10T04:56:37.423Z,1012.97
2022-11-10T04:57:37.399Z,1012.99
2022-11-10T04:58:37.398Z,1013.04
2022-11-10T04:59:37.381Z,1013.07
2022-11-10T05:00:37.399Z,1013.04
2022-11-10T05:01:37.366Z,1013.06
2022-11-10T05:02:39.804Z,1013.06
2022-11-10T05:03:37.367Z,1013.07
2022-11-10T05:04:37.322Z,1013.07
2022-11-10T05:05:37.313Z,1013.08
2022-11-10T05:06:37.373Z,1013.04
2022-11-10T05:07:37.292Z,1013.07
2022-11-10T05:08:37.284Z,1013.07
2022-11-10T05:09:37.274Z,1013.10
2022-11-10T05:10:37.258Z,1013.10
2022-11-10T05:11:37.251Z,1013.12
2022-11-10T05:12:37.249Z,1013.14
2022-11-10T05:13:37.242Z,1013.15
2022-11-10T05:14:37.216Z,1013.19
2022-11-10T05:15:37.224Z,1013.16
2022-11-10T05:16:37.195Z,1013.19
2022-11-10T05:17:37.196Z,1013.21
2022-11-10T05:18:37.175Z,1013.23
2022-11-10T05:19:37.182Z,1013.29
2022-11-10T05:20:37.151Z,1013.26
2022-11-10T05:21:37.144Z,1013.29
2022-11-10T05:22:37.143Z,1013.28
2022-11-10T05:23:37.121Z,1013.27
2022-11-10T05:24:37.109Z,1013.32
2022-11-10T05:25:37.104Z,1013.32
2022-11-10T05:26:37.087Z,1013.38
2022-11-10T05:27:37.094Z,1013.42
2022-11-10T05:28:37.067Z,1013.42
2022-11-10T05:29:37.056Z,1013.46
2022-11-10T05:30:37.044Z,1013.47
2022-11-10T05:31:37.034Z,1013.51
2022-11-10T05:32:37.037Z,1013.50
2022-11-10T05:33:37.014Z,1013.54
2022-11-10T05:34:37.003Z,1013.57
2022-11-10T05:35:37.012Z,1013.57
2022-11-10T05:36:36.980Z,1013.62
2022-11-10T05:37:36.982Z,1013.60
2022-11-10T05:38:42.883Z,1013.66
2022-11-10T05:39:37.946Z,1013.65
2022-11-10T05:40:36.937Z,1013.63
2022-11-10T05:41:36.930Z,1013.74
2022-11-10T05:42:36.930Z,1013.72
2022-11-10T05:43:36.907Z,1013.78
2022-11-10T05:44:36.896Z,1013.75
2022-11-10T05:45:36.883Z,1013.80
2022-11-10T05:46:36.872Z,1013.81
2022-11-10T05:47:36.875Z,1013.86
2022-11-10T05:48:36.857Z,1013.84
2022-11-10T05:49:36.841Z,1013.88
2022-11-10T05:50:36.829Z,1013.91
2022-11-10T05:51:36.835Z,1013.92
2022-11-10T05:52:36.823Z,1013.90
2022-11-10T05:53:36.798Z,1013.92
2022-11-10T05:54:36.838Z,1013.94
2022-11-10T05:55:36.781Z,1013.94
2022-11-10T05:56:36.771Z,1013.99
2022-11-10T05:57:36.770Z,1014.02
2022-11-10T05:58:36.742Z,1014.05
2022-11-10T05:59:36.738Z,1014.11
2022-11-10T06:00:36.722Z,1014.11
2022-11-10T06:01:36.712Z,1014.12
2022-11-10T06:02:36.767Z,1014.16
2022-11-10T06:03:36.752Z,1014.21
2022-11-10T06:04:36.678Z,1014.31
2022-11-10T06:05:36.674Z,1014.30
2022-11-10T06:06:36.718Z,1014.34
2022-11-10T06:07:36.678Z,1014.30
2022-11-10T06:08:36.638Z,1014.36
2022-11-10T06:09:36.631Z,1014.36
2022-11-10T06:10:36.638Z,1014.37
2022-11-10T06:11:36.612Z,1014.40
2022-11-10T06:12:36.603Z,1014.37
2022-11-10T06:13:36.583Z,1014.43
2022-11-10T06:14:36.572Z,1014.39
2022-11-10T06:15:36.561Z,1014.41
2022-11-10T06:16:36.548Z,1014.48
2022-11-10T06:17:36.555Z,1014.44
2022-11-10T06:18:36.529Z,1014.48
2022-11-10T06:19:36.519Z,1014.48
2022-11-10T06:20:36.507Z,1014.53
2022-11-10T06:21:36.514Z,1014.52
2022-11-10T06:22:36.494Z,1014.56
2022-11-10T06:23:36.490Z,1014.56
2022-11-10T06:24:36.462Z,1014.60
2022-11-10T06:25:36.455Z,1014.60
2022-11-10T06:26:36.442Z,1014.64
2022-11-10T06:27:36.448Z,1014.65
2022-11-10T06:28:36.436Z,1014.70
2022-11-10T06:29:36.410Z,1014.67
2022-11-10T06:30:36.401Z,1014.71
2022-11-10T06:31:36.393Z,1014.72
2022-11-10T06:32:36.395Z,1014.78
2022-11-10T06:33:36.368Z,1014.82
2022-11-10T06:34:36.356Z,1014.84
2022-11-10T06:35:36.348Z,1014.90
2022-11-10T06:36:36.334Z,1014.87
2022-11-10T06:37:36.337Z,1014.91
2022-11-10T06:38:36.314Z,1014.90
2022-11-10T06:39:36.323Z,1014.95
2022-11-10T06:40:36.290Z,1014.93
2022-11-10T06:41:36.286Z,1015.05
2022-11-10T06:42:36.291Z,1015.10
2022-11-10T06:43:36.269Z,1015.06
2022-11-10T06:44:36.253Z,1015.06
2022-11-10T06:45:36.239Z,1015.08
2022-11-10T06:46:42.011Z,1015.09
2022-11-10T06:47:37.271Z,1015.10
2022-11-10T06:48:36.209Z,1015.12
2022-11-10T06:49:36.196Z,1015.10
2022-11-10T06:50:36.190Z,1015.19
2022-11-10T06:51:36.194Z,1015.23
2022-11-10T06:52:36.163Z,1015.23
2022-11-10T06:53:36.152Z,1015.33
2022-11-10T06:54:36.137Z,1015.37
2022-11-10T06:55:36.147Z,1015.31
2022-11-10T06:56:36.164Z,1015.37
2022-11-10T06:57:36.113Z,1015.37
2022-11-10T06:58:36.095Z,1015.38
2022-11-10T06:59:36.086Z,1015.40
2022-11-10T07:00:36.075Z,1015.42
2022-11-10T07:01:36.128Z,1015.44
2022-11-10T07:02:36.056Z,1015.43
2022-11-10T07:03:38.796Z,1015.44
2022-11-10T07:04:37.033Z,1015.48
2022-11-10T07:05:36.022Z,1015.45
2022-11-10T07:06:36.089Z,1015.48
2022-11-10T07:07:36.001Z,1015.51
2022-11-10T07:08:35.988Z,1015.61
2022-11-10T07:09:35.979Z,1015.63
2022-11-10T07:10:35.965Z,1015.63
2022-11-10T07:11:36.001Z,1015.64
2022-11-10T07:12:35.941Z,1015.62
2022-11-10T07:13:35.934Z,1015.67
2022-11-10T07:14:35.920Z,1015.71
2022-11-10T07:15:35.915Z,1015.75
2022-11-10T07:16:35.914Z,1015.80
2022-11-10T07:17:35.890Z,1015.84
2022-11-10T07:18:35.878Z,1015.84
2022-11-10T07:19:35.867Z,1015.85
2022-11-10T07:20:35.858Z,1015.85
2022-11-10T07:21:35.856Z,1015.86
2022-11-10T07:22:35.836Z,1015.86
2022-11-10T07:23:35.846Z,1015.78
2022-11-10T07:24:35.823Z,1015.82
2022-11-10T07:25:35.815Z,1015.87
2022-11-10T07:26:35.796Z,1015.85
2022-11-10T07:27:35.797Z,1015.86
2022-11-10T07:28:35.795Z,1015.88
2022-11-10T07:29:35.761Z,1015.90
2022-11-10T07:30:35.757Z,1015.95
2022-11-10T07:31:35.743Z,1015.88
2022-11-10T07:32:35.726Z,1015.93
2022-11-10T07:33:43.816Z,1016.04
2022-11-10T07:34:35.703Z,1016.08
2022-11-10T07:35:35.740Z,1016.08
2022-11-10T07:36:35.686Z,1016.15
2022-11-10T07:37:35.676Z,1016.13
2022-11-10T07:38:35.662Z,1016.13
2022-11-10T07:39:35.653Z,1016.19
2022-11-10T07:40:35.640Z,1016.24
2022-11-10T07:41:35.642Z,1016.19
2022-11-10T07:42:35.617Z,1016.13
2022-11-10T07:43:35.624Z,1016.19
2022-11-10T07:44:35.595Z,1016.18
2022-11-10T07:45:35.601Z,1016.18
2022-11-10T07:46:35.582Z,1016.18
2022-11-10T07:47:35.564Z,1016.22
2022-11-10T07:48:35.564Z,1016.22
2022-11-10T07:49:35.544Z,1016.27
2022-11-10T07:50:35.534Z,1016.30
2022-11-10T07:51:35.532Z,1016.31
2022-11-10T07:52:35.509Z,1016.28
2022-11-10T07:53:35.500Z,1016.30
2022-11-10T07:54:35.488Z,1016.37
2022-11-10T07:55:35.479Z,1016.36
2022-11-10T07:56:35.472Z,1016.37
2022-11-10T07:57:35.456Z,1016.39
2022-11-10T07:58:35.445Z,1016.39
2022-11-10T07:59:35.451Z,1016.43
2022-11-10T08:00:35.420Z,1016.41
2022-11-10T08:01:35.456Z,1016.48
2022-11-10T08:02:35.400Z,1016.44
2022-11-10T08:03:35.394Z,1016.45
2022-11-10T08:04:35.384Z,1016.45
2022-11-10T08:05:35.369Z,1016.47
2022-11-10T08:06:36.513Z,1016.46
2022-11-10T08:07:35.540Z,1016.46
2022-11-10T08:08:35.336Z,1016.52
2022-11-10T08:09:35.329Z,1016.48
2022-11-10T08:10:35.326Z,1016.49
2022-11-10T08:11:35.308Z,1016.48
2022-11-10T08:12:35.300Z,1016.51
2022-11-10T08:13:35.284Z,1016.52
2022-11-10T08:14:35.272Z,1016.50
2022-11-10T08:15:35.293Z,1016.46
2022-11-10T08:16:35.252Z,1016.53
2022-11-10T08:17:35.240Z,1016.54
2022-11-10T08:18:35.857Z,1016.47
2022-11-10T08:19:35.217Z,1016.47
2022-11-10T08:20:35.235Z,1016.51
2022-11-10T08:21:35.209Z,1016.51
2022-11-10T08:22:35.189Z,1016.54
2022-11-10T08:23:35.179Z,1016.64
2022-11-10T08:24:35.170Z,1016.63
2022-11-10T08:25:35.704Z,1016.65
2022-11-10T08:26:35.156Z,1016.58
2022-11-10T08:27:35.135Z,1016.69
2022-11-10T08:28:35.123Z,1016.56
2022-11-10T08:29:35.112Z,1016.58
2022-11-10T08:30:35.105Z,1016.62
2022-11-10T08:31:35.118Z,1016.66
2022-11-10T08:32:35.082Z,1016.68
2022-11-10T08:33:35.068Z,1016.69
2022-11-10T08:34:35.063Z,1016.64
2022-11-10T08:35:35.046Z,1016.63
2022-11-10T08:36:35.052Z,1016.74
2022-11-10T08:37:35.025Z,1016.74
2022-11-10T08:38:35.019Z,1016.80
2022-11-10T08:39:39.520Z,1016.79
2022-11-10T08:40:35.005Z,1016.73
2022-11-10T08:41:35.022Z,1016.76
2022-11-10T08:42:34.973Z,1016.80
2022-11-10T08:43:34.962Z,1016.80
2022-11-10T08:44:34.952Z,1016.84
2022-11-10T08:45:34.949Z,1016.86
2022-11-10T08:46:34.929Z,1016.82
2022-11-10T08:47:34.952Z,1016.98
2022-11-10T08:48:34.908Z,1016.93
2022-11-10T08:49:34.896Z,1016.93
2022-11-10T08:50:34.904Z,1017.00
2022-11-10T08:51:38.848Z,1016.97
2022-11-10T08:52:34.865Z,1016.96
2022-11-10T08:53:34.861Z,1017.02
2022-11-10T08:54:34.841Z,1017.04
2022-11-10T08:55:34.839Z,1017.11
2022-11-10T08:56:34.819Z,1017.20
2022-11-10T08:57:34.808Z,1017.20
2022-11-10T08:58:39.788Z,1017.16
2022-11-10T08:59:35.784Z,1017.23
2022-11-10T09:00:34.784Z,1017.23
2022-11-10T09:01:34.764Z,1017.20
2022-11-10T09:02:34.755Z,1017.18
2022-11-10T09:03:34.771Z,1017.27
2022-11-10T09:04:34.795Z,1017.34
2022-11-10T09:05:34.745Z,1017.32
2022-11-10T09:06:34.728Z,1017.38
2022-11-10T09:07:34.698Z,1017.40
2022-11-10T09:08:34.690Z,1017.45
2022-11-10T09:09:34.704Z,1017.37
2022-11-10T09:10:34.680Z,1017.40
2022-11-10T09:11:34.656Z,1017.40
2022-11-10T09:12:34.649Z,1017.41
2022-11-10T09:13:35.207Z,1017.43
2022-11-10T09:14:34.626Z,1017.46
2022-11-10T09:15:34.625Z,1017.52
2022-11-10T09:16:34.607Z,1017.49
2022-11-10T09:17:34.598Z,1017.52
2022-11-10T09:18:34.584Z,1017.62
2022-11-10T09:19:34.624Z,1017.63
2022-11-10T09:20:34.577Z,1017.68
2022-11-10T09:21:34.554Z,1017.63
2022-11-10T09:22:34.544Z,1017.58
2022-11-10T09:23:34.532Z,1017.61
2022-11-10T09:24:34.525Z,1017.59
2022-11-10T09:25:34.537Z,1017.60
2022-11-10T09:26:34.499Z,1017.66
2022-11-10T09:27:34.488Z,1017.64
2022-11-10T09:28:34.478Z,1017.66
2022-11-10T09:29:34.503Z,1017.70
2022-11-10T09:30:34.501Z,1017.70
2022-11-10T09:31:34.447Z,1017.79
2022-11-10T09:32:34.439Z,1017.68
2022-11-10T09:33:34.424Z,1017.66
2022-11-10T09:34:34.417Z,1017.69
2022-11-10T09:35:34.447Z,1017.64
2022-11-10T09:36:34.401Z,1017.78
2022-11-10T09:37:34.383Z,1017.73
2022-11-10T09:38:34.376Z,1017.81
2022-11-10T09:39:34.383Z,1017.72
2022-11-10T09:40:34.367Z,1017.77
2022-11-10T09:41:34.342Z,1017.73
2022-11-10T09:42:34.330Z,1017.80
2022-11-10T09:43:34.320Z,1017.88
2022-11-10T09:44:34.314Z,1017.80
2022-11-10T09:45:38.867Z,1017.73
2022-11-10T09:46:35.302Z,1017.83
2022-11-10T09:47:56.248Z,1017.83
2022-11-10T09:48:35.269Z,1017.91
2022-11-10T09:49:34.256Z,1017.88
2022-11-10T09:50:34.263Z,1017.87
2022-11-10T09:51:34.253Z,1017.90
2022-11-10T09:52:34.260Z,1017.98
2022-11-10T09:53:34.225Z,1017.89
2022-11-10T09:54:34.207Z,1017.98
2022-11-10T09:55:34.220Z,1017.94
2022-11-10T09:56:34.201Z,1017.98
2022-11-10T09:57:34.176Z,1018.03
2022-11-10T09:58:34.167Z,1018.03
2022-11-10T09:59:34.170Z,1018.05
2022-11-10T10:00:34.165Z,1018.02
2022-11-10T10:01:34.150Z,1017.90
2022-11-10T10:02:34.130Z,1017.94
2022-11-10T10:03:34.114Z,1017.93
2022-11-10T10:04:34.105Z,1018.03
2022-11-10T10:05:34.106Z,1017.93
2022-11-10T10:06:56.977Z,1017.99
2022-11-10T10:07:35.144Z,1017.88
2022-11-10T10:08:34.065Z,1017.95
2022-11-10T10:09:34.054Z,1018.03
2022-11-10T10:10:34.052Z,1017.97
2022-11-10T10:11:34.031Z,1017.99
2022-11-10T10:12:34.023Z,1017.94
2022-11-10T10:13:34.010Z,1017.94
2022-11-10T10:14:34.002Z,1017.96
2022-11-10T10:15:34.002Z,1018.02
2022-11-10T10:16:33.980Z,1017.96
2022-11-10T10:17:38.350Z,1017.87
2022-11-10T10:18:34.960Z,1017.86
2022-11-10T10:19:33.953Z,1017.82
2022-11-10T10:20:33.950Z,1017.79
2022-11-10T10:21:33.930Z,1017.87
2022-11-10T10:22:33.921Z,1017.85
2022-11-10T10:23:54.468Z,1017.87
2022-11-10T10:24:34.912Z,1017.90
2022-11-10T10:25:33.886Z,1017.93
2022-11-10T10:26:33.883Z,1017.95
2022-11-10T10:27:33.866Z,1017.89
2022-11-10T10:28:33.869Z,1017.93
2022-11-10T10:29:37.522Z,1017.93
2022-11-10T10:30:33.834Z,1017.95
2022-11-10T10:31:33.822Z,1017.93
2022-11-10T10:32:33.812Z,1017.86
2022-11-10T10:33:33.800Z,1017.97
2022-11-10T10:34:33.807Z,1017.92
2022-11-10T10:35:37.690Z,1017.93
2022-11-10T10:36:34.767Z,1017.95
2022-11-10T10:37:33.756Z,1017.94
2022-11-10T10:38:33.762Z,1017.98
2022-11-10T10:39:33.764Z,1017.98
2022-11-10T10:40:33.725Z,1018.03
2022-11-10T10:41:33.713Z,1017.98
2022-11-10T10:42:33.703Z,1018.02
2022-11-10T10:43:33.691Z,1018.06
2022-11-10T10:44:33.683Z,1018.05
2022-11-10T10:45:33.814Z,1018.07
2022-11-10T10:46:35.925Z,1018.03
2022-11-10T10:47:33.650Z,1018.10
2022-11-10T10:48:33.640Z,1018.05
2022-11-10T10:49:33.637Z,1018.04
2022-11-10T10:50:33.624Z,1018.01
2022-11-10T10:51:33.616Z,1018.13
2022-11-10T10:52:33.599Z,1018.12
2022-11-10T10:53:33.605Z,1018.09
2022-11-10T10:54:33.592Z,1018.12
2022-11-10T10:55:33.579Z,1018.15
2022-11-10T10:56:33.553Z,1018.18
2022-11-10T10:57:33.543Z,1018.17
2022-11-10T10:58:33.532Z,1018.26
2022-11-10T10:59:33.530Z,1018.24
2022-11-10T11:00:33.509Z,1018.23
2022-11-10T11:01:33.586Z,1018.20
2022-11-10T11:02:33.488Z,1018.22
2022-11-10T11:03:33.477Z,1018.21
2022-11-10T11:04:33.480Z,1018.22
2022-11-10T11:05:33.457Z,1018.26
2022-11-10T11:06:33.587Z,1018.24
2022-11-10T11:07:33.436Z,1018.26
2022-11-10T11:08:33.449Z,1018.25
2022-11-10T11:09:33.421Z,1018.25
2022-11-10T11:10:33.402Z,1018.24
2022-11-10T11:11:33.413Z,1018.24
2022-11-10T11:12:33.388Z,1018.20
2022-11-10T11:13:33.369Z,1018.18
2022-11-10T11:14:33.371Z,1018.16
2022-11-10T11:15:33.372Z,1018.13
2022-11-10T11:16:33.344Z,1018.16
2022-11-10T11:17:33.404Z,1018.16
2022-11-10T11:18:33.331Z,1018.17
2022-11-10T11:19:33.318Z,1018.15
2022-11-10T11:20:33.295Z,1018.24
2022-11-10T11:21:33.281Z,1018.23
2022-11-10T11:22:33.274Z,1018.22
2022-11-10T11:23:33.267Z,1018.21
2022-11-10T11:24:33.265Z,1018.20
2022-11-10T11:25:33.238Z,1018.23
2022-11-10T11:26:33.228Z,1018.19
2022-11-10T11:27:33.261Z,1018.19
2022-11-10T11:28:33.209Z,1018.19
2022-11-10T11:29:33.206Z,1018.20
2022-11-10T11:30:33.187Z,1018.17
2022-11-10T11:31:33.175Z,1018.21
2022-11-10T11:32:33.163Z,1018.20
2022-11-10T11:33:33.155Z,1018.24
2022-11-10T11:34:33.151Z,1018.20
2022-11-10T11:35:33.129Z,1018.24
2022-11-10T11:36:33.120Z,1018.22
2022-11-10T11:37:33.109Z,1018.24
2022-11-10T11:38:33.103Z,1018.25
2022-11-10T11:39:33.104Z,1018.25
2022-11-10T11:40:33.076Z,1018.25
2022-11-10T11:41:33.065Z,1018.28
2022-11-10T11:42:33.059Z,1018.29
2022-11-10T11:43:33.068Z,1018.28
2022-11-10T11:44:33.047Z,1018.22
2022-11-10T11:45:33.027Z,1018.20
2022-11-10T11:46:33.012Z,1018.30
2022-11-10T11:47:32.999Z,1018.24
2022-11-10T11:48:32.991Z,1018.26
2022-11-10T11:49:32.992Z,1018.29
2022-11-10T11:50:32.968Z,1018.33
2022-11-10T11:51:32.954Z,1018.32
2022-11-10T11:52:32.946Z,1018.33
2022-11-10T11:53:32.933Z,1018.26
2022-11-10T11:54:32.934Z,1018.31
2022-11-10T11:55:32.912Z,1018.33
2022-11-10T11:56:32.908Z,1018.33
2022-11-10T11:57:37.207Z,1018.30
2022-11-10T11:58:33.879Z,1018.29
2022-11-10T11:59:32.896Z,1018.23
2022-11-10T12:00:32.858Z,1018.24
2022-11-10T12:01:32.846Z,1018.26
2022-11-10T12:02:32.852Z,1018.26
2022-11-10T12:03:32.828Z,1018.28
2022-11-10T12:04:32.825Z,1018.34
2022-11-10T12:05:32.803Z,1018.32
2022-11-10T12:06:32.832Z,1018.35